sensor_id;sensor_type;location;lat;lon;timestamp;P1;durP1;ratioP1;P2;durP2;ratioP2
12554;SDS011;6343;50.868;4.700;2022-12-18T00:01:01;35.50;;;18.77;;
12554;SDS011;6343;50.868;4.700;2022-12-18T00:03:34;49.20;;;24.07;;
12554;SDS011;6343;50.868;4.700;2022-12-18T00:06:00;73.30;;;33.00;;
12554;SDS011;6343;50.868;4.700;2022-12-18T00:08:26;49.23;;;23.60;;
12554;SDS011;6343;50.868;4.700;2022-12-18T00:10:52;37.77;;;19.90;;
12554;SDS011;6343;50.868;4.700;2022-12-18T00:13:18;43.00;;;22.17;;
12554;SDS011;6343;50.868;4.700;2022-12-18T00:15:44;46.83;;;24.93;;
12554;SDS011;6343;50.868;4.700;2022-12-18T00:18:10;43.70;;;22.33;;
12554;SDS011;6343;50.868;4.700;2022-12-18T00:20:37;40.27;;;21.23;;
12554;SDS011;6343;50.868;4.700;2022-12-18T00:23:03;44.13;;;21.13;;
12554;SDS011;6343;50.868;4.700;2022-12-18T00:25:29;39.67;;;21.63;;
12554;SDS011;6343;50.868;4.700;2022-12-18T00:27:56;40.10;;;20.00;;
12554;SDS011;6343;50.868;4.700;2022-12-18T00:30:22;34.43;;;19.60;;
12554;SDS011;6343;50.868;4.700;2022-12-18T00:32:48;36.30;;;19.70;;
12554;SDS011;6343;50.868;4.700;2022-12-18T00:35:14;32.37;;;18.73;;
12554;SDS011;6343;50.868;4.700;2022-12-18T00:37:40;30.23;;;17.90;;
12554;SDS011;6343;50.868;4.700;2022-12-18T00:40:06;31.20;;;16.57;;
12554;SDS011;6343;50.868;4.700;2022-12-18T00:42:33;29.20;;;17.17;;
12554;SDS011;6343;50.868;4.700;2022-12-18T00:45:17;30.73;;;17.37;;
12554;SDS011;6343;50.868;4.700;2022-12-18T00:47:43;34.07;;;18.60;;
12554;SDS011;6343;50.868;4.700;2022-12-18T00:50:09;32.23;;;18.00;;
12554;SDS011;6343;50.868;4.700;2022-12-18T00:52:36;29.27;;;17.23;;
12554;SDS011;6343;50.868;4.700;2022-12-18T00:55:02;29.33;;;16.57;;
12554;SDS011;6343;50.868;4.700;2022-12-18T00:57:28;36.13;;;19.20;;
12554;SDS011;6343;50.868;4.700;2022-12-18T00:59:54;35.07;;;19.53;;
12554;SDS011;6343;50.868;4.700;2022-12-18T01:02:20;35.20;;;19.33;;
12554;SDS011;6343;50.868;4.700;2022-12-18T01:04:46;33.33;;;18.07;;
12554;SDS011;6343;50.868;4.700;2022-12-18T01:07:12;40.10;;;19.83;;
12554;SDS011;6343;50.868;4.700;2022-12-18T01:09:38;32.97;;;18.07;;
12554;SDS011;6343;50.868;4.700;2022-12-18T01:12:05;32.77;;;17.90;;
12554;SDS011;6343;50.868;4.700;2022-12-18T01:14:31;33.23;;;18.20;;
12554;SDS011;6343;50.868;4.700;2022-12-18T01:16:58;29.43;;;17.37;;
12554;SDS011;6343;50.868;4.700;2022-12-18T01:19:24;34.20;;;18.03;;
12554;SDS011;6343;50.868;4.700;2022-12-18T01:21:50;34.23;;;17.37;;
12554;SDS011;6343;50.868;4.700;2022-12-18T01:24:16;31.10;;;16.50;;
12554;SDS011;6343;50.868;4.700;2022-12-18T01:26:42;29.50;;;17.23;;
12554;SDS011;6343;50.868;4.700;2022-12-18T01:29:08;32.37;;;16.67;;
12554;SDS011;6343;50.868;4.700;2022-12-18T01:31:34;52.57;;;25.57;;
12554;SDS011;6343;50.868;4.700;2022-12-18T01:34:01;34.03;;;17.97;;
12554;SDS011;6343;50.868;4.700;2022-12-18T01:36:28;34.00;;;17.43;;
12554;SDS011;6343;50.868;4.700;2022-12-18T01:38:55;34.23;;;16.73;;
12554;SDS011;6343;50.868;4.700;2022-12-18T01:41:23;36.90;;;18.23;;
12554;SDS011;6343;50.868;4.700;2022-12-18T01:43:53;33.20;;;17.47;;
12554;SDS011;6343;50.868;4.700;2022-12-18T01:46:21;30.43;;;17.07;;
12554;SDS011;6343;50.868;4.700;2022-12-18T01:48:47;37.00;;;17.87;;
12554;SDS011;6343;50.868;4.700;2022-12-18T01:51:14;32.70;;;17.23;;
12554;SDS011;6343;50.868;4.700;2022-12-18T01:53:41;39.23;;;20.80;;
12554;SDS011;6343;50.868;4.700;2022-12-18T01:56:11;49.70;;;24.30;;
12554;SDS011;6343;50.868;4.700;2022-12-18T02:01:04;72.20;;;32.40;;
12554;SDS011;6343;50.868;4.700;2022-12-18T02:03:30;60.73;;;29.73;;
12554;SDS011;6343;50.868;4.700;2022-12-18T02:18:47;35.37;;;18.37;;
12554;SDS011;6343;50.868;4.700;2022-12-18T02:26:38;32.27;;;18.50;;
12554;SDS011;6343;50.868;4.700;2022-12-18T02:29:10;31.67;;;17.33;;
12554;SDS011;6343;50.868;4.700;2022-12-18T02:31:40;32.57;;;17.93;;
12554;SDS011;6343;50.868;4.700;2022-12-18T02:34:08;32.20;;;17.50;;
12554;SDS011;6343;50.868;4.700;2022-12-18T02:36:36;31.70;;;16.47;;
12554;SDS011;6343;50.868;4.700;2022-12-18T02:39:04;34.93;;;17.23;;
12554;SDS011;6343;50.868;4.700;2022-12-18T02:41:31;27.97;;;16.13;;
12554;SDS011;6343;50.868;4.700;2022-12-18T02:43:58;31.27;;;16.50;;
12554;SDS011;6343;50.868;4.700;2022-12-18T02:51:41;28.93;;;15.80;;
12554;SDS011;6343;50.868;4.700;2022-12-18T02:57:13;32.37;;;16.10;;
12554;SDS011;6343;50.868;4.700;2022-12-18T02:59:46;35.30;;;16.20;;
12554;SDS011;6343;50.868;4.700;2022-12-18T03:02:25;28.50;;;15.40;;
12554;SDS011;6343;50.868;4.700;2022-12-18T03:04:59;29.10;;;15.73;;
12554;SDS011;6343;50.868;4.700;2022-12-18T03:07:32;28.33;;;16.27;;
12554;SDS011;6343;50.868;4.700;2022-12-18T03:09:59;48.77;;;22.13;;
12554;SDS011;6343;50.868;4.700;2022-12-18T03:12:34;41.80;;;19.67;;
12554;SDS011;6343;50.868;4.700;2022-12-18T03:15:05;28.10;;;15.23;;
12554;SDS011;6343;50.868;4.700;2022-12-18T03:17:33;30.27;;;15.47;;
12554;SDS011;6343;50.868;4.700;2022-12-18T03:20:02;27.87;;;15.30;;
12554;SDS011;6343;50.868;4.700;2022-12-18T03:22:30;26.57;;;15.10;;
12554;SDS011;6343;50.868;4.700;2022-12-18T03:24:57;30.07;;;15.33;;
12554;SDS011;6343;50.868;4.700;2022-12-18T03:27:25;29.30;;;15.60;;
12554;SDS011;6343;50.868;4.700;2022-12-18T03:29:53;27.43;;;14.83;;
12554;SDS011;6343;50.868;4.700;2022-12-18T03:32:25;29.87;;;16.03;;
12554;SDS011;6343;50.868;4.700;2022-12-18T03:34:55;29.27;;;14.43;;
12554;SDS011;6343;50.868;4.700;2022-12-18T03:37:24;28.50;;;15.30;;
12554;SDS011;6343;50.868;4.700;2022-12-18T03:39:50;26.40;;;15.33;;
12554;SDS011;6343;50.868;4.700;2022-12-18T03:42:26;27.13;;;14.67;;
12554;SDS011;6343;50.868;4.700;2022-12-18T03:45:00;47.03;;;23.97;;
12554;SDS011;6343;50.868;4.700;2022-12-18T03:47:36;28.93;;;15.43;;
12554;SDS011;6343;50.868;4.700;2022-12-18T03:50:41;31.37;;;16.13;;
12554;SDS011;6343;50.868;4.700;2022-12-18T03:53:06;29.87;;;15.73;;
12554;SDS011;6343;50.868;4.700;2022-12-18T03:55:34;29.03;;;15.03;;
12554;SDS011;6343;50.868;4.700;2022-12-18T03:58:01;27.13;;;15.10;;
12554;SDS011;6343;50.868;4.700;2022-12-18T04:00:28;28.87;;;15.47;;
12554;SDS011;6343;50.868;4.700;2022-12-18T04:02:55;30.17;;;15.73;;
12554;SDS011;6343;50.868;4.700;2022-12-18T04:05:23;29.57;;;15.83;;
12554;SDS011;6343;50.868;4.700;2022-12-18T04:07:50;25.83;;;14.97;;
12554;SDS011;6343;50.868;4.700;2022-12-18T04:10:17;29.10;;;14.80;;
12554;SDS011;6343;50.868;4.700;2022-12-18T04:12:43;26.43;;;14.60;;
12554;SDS011;6343;50.868;4.700;2022-12-18T04:15:10;30.03;;;16.17;;
12554;SDS011;6343;50.868;4.700;2022-12-18T04:17:37;32.37;;;15.90;;
12554;SDS011;6343;50.868;4.700;2022-12-18T04:20:03;31.03;;;16.23;;
12554;SDS011;6343;50.868;4.700;2022-12-18T04:22:29;29.17;;;15.13;;
12554;SDS011;6343;50.868;4.700;2022-12-18T04:24:55;33.03;;;15.90;;
12554;SDS011;6343;50.868;4.700;2022-12-18T04:27:21;28.73;;;16.40;;
12554;SDS011;6343;50.868;4.700;2022-12-18T04:29:47;30.60;;;15.67;;
12554;SDS011;6343;50.868;4.700;2022-12-18T04:32:14;23.63;;;13.83;;
12554;SDS011;6343;50.868;4.700;2022-12-18T04:34:40;27.13;;;14.70;;
12554;SDS011;6343;50.868;4.700;2022-12-18T04:37:06;25.07;;;14.17;;
12554;SDS011;6343;50.868;4.700;2022-12-18T04:39:32;30.87;;;15.07;;
12554;SDS011;6343;50.868;4.700;2022-12-18T04:41:58;26.13;;;14.97;;
12554;SDS011;6343;50.868;4.700;2022-12-18T04:44:24;29.87;;;15.23;;
12554;SDS011;6343;50.868;4.700;2022-12-18T04:46:50;26.97;;;14.43;;
12554;SDS011;6343;50.868;4.700;2022-12-18T04:49:16;25.73;;;15.47;;
12554;SDS011;6343;50.868;4.700;2022-12-18T04:51:42;27.87;;;15.70;;
12554;SDS011;6343;50.868;4.700;2022-12-18T04:54:08;27.13;;;14.67;;
12554;SDS011;6343;50.868;4.700;2022-12-18T04:56:34;32.80;;;15.77;;
12554;SDS011;6343;50.868;4.700;2022-12-18T04:59:00;27.07;;;15.70;;
12554;SDS011;6343;50.868;4.700;2022-12-18T05:01:26;24.97;;;14.90;;
12554;SDS011;6343;50.868;4.700;2022-12-18T05:03:53;25.90;;;15.17;;
12554;SDS011;6343;50.868;4.700;2022-12-18T05:06:19;26.17;;;14.60;;
12554;SDS011;6343;50.868;4.700;2022-12-18T05:08:45;24.67;;;14.53;;
12554;SDS011;6343;50.868;4.700;2022-12-18T05:11:12;27.37;;;15.40;;
12554;SDS011;6343;50.868;4.700;2022-12-18T05:13:40;26.27;;;15.50;;
12554;SDS011;6343;50.868;4.700;2022-12-18T05:16:06;25.27;;;14.23;;
12554;SDS011;6343;50.868;4.700;2022-12-18T05:18:33;25.30;;;14.43;;
12554;SDS011;6343;50.868;4.700;2022-12-18T05:20:59;31.10;;;15.60;;
12554;SDS011;6343;50.868;4.700;2022-12-18T05:23:25;26.97;;;14.27;;
12554;SDS011;6343;50.868;4.700;2022-12-18T05:28:18;29.83;;;15.40;;
12554;SDS011;6343;50.868;4.700;2022-12-18T05:30:48;34.60;;;16.97;;
12554;SDS011;6343;50.868;4.700;2022-12-18T05:33:14;31.27;;;17.17;;
12554;SDS011;6343;50.868;4.700;2022-12-18T05:35:41;30.80;;;17.20;;
12554;SDS011;6343;50.868;4.700;2022-12-18T05:38:07;30.97;;;16.87;;
12554;SDS011;6343;50.868;4.700;2022-12-18T05:40:33;32.30;;;16.37;;
12554;SDS011;6343;50.868;4.700;2022-12-18T05:42:59;32.07;;;15.57;;
12554;SDS011;6343;50.868;4.700;2022-12-18T05:45:25;28.33;;;16.23;;
12554;SDS011;6343;50.868;4.700;2022-12-18T05:47:51;25.57;;;14.37;;
12554;SDS011;6343;50.868;4.700;2022-12-18T05:50:18;28.97;;;15.30;;
12554;SDS011;6343;50.868;4.700;2022-12-18T05:52:44;28.30;;;15.60;;
12554;SDS011;6343;50.868;4.700;2022-12-18T05:55:10;27.90;;;15.93;;
12554;SDS011;6343;50.868;4.700;2022-12-18T05:57:36;32.43;;;16.37;;
12554;SDS011;6343;50.868;4.700;2022-12-18T06:00:02;27.60;;;14.83;;
12554;SDS011;6343;50.868;4.700;2022-12-18T06:02:29;26.13;;;13.83;;
12554;SDS011;6343;50.868;4.700;2022-12-18T06:04:55;27.80;;;14.40;;
12554;SDS011;6343;50.868;4.700;2022-12-18T06:07:21;23.73;;;13.30;;
12554;SDS011;6343;50.868;4.700;2022-12-18T06:09:47;29.70;;;15.40;;
12554;SDS011;6343;50.868;4.700;2022-12-18T06:12:13;31.03;;;16.40;;
12554;SDS011;6343;50.868;4.700;2022-12-18T06:14:39;28.83;;;15.33;;
12554;SDS011;6343;50.868;4.700;2022-12-18T06:17:05;29.37;;;15.60;;
12554;SDS011;6343;50.868;4.700;2022-12-18T06:19:31;28.07;;;14.43;;
12554;SDS011;6343;50.868;4.700;2022-12-18T06:21:57;29.63;;;14.43;;
12554;SDS011;6343;50.868;4.700;2022-12-18T06:24:24;29.80;;;14.70;;
12554;SDS011;6343;50.868;4.700;2022-12-18T06:26:50;29.37;;;14.70;;
12554;SDS011;6343;50.868;4.700;2022-12-18T06:29:16;28.90;;;15.20;;
12554;SDS011;6343;50.868;4.700;2022-12-18T06:31:42;27.60;;;14.07;;
12554;SDS011;6343;50.868;4.700;2022-12-18T06:34:08;25.73;;;14.03;;
12554;SDS011;6343;50.868;4.700;2022-12-18T06:36:34;25.03;;;13.43;;
12554;SDS011;6343;50.868;4.700;2022-12-18T06:39:00;25.53;;;13.30;;
12554;SDS011;6343;50.868;4.700;2022-12-18T06:41:26;27.13;;;13.17;;
12554;SDS011;6343;50.868;4.700;2022-12-18T06:43:52;28.60;;;13.23;;
12554;SDS011;6343;50.868;4.700;2022-12-18T06:46:18;22.80;;;13.10;;
12554;SDS011;6343;50.868;4.700;2022-12-18T06:48:48;23.20;;;12.43;;
12554;SDS011;6343;50.868;4.700;2022-12-18T06:51:18;24.37;;;13.33;;
12554;SDS011;6343;50.868;4.700;2022-12-18T06:53:45;27.43;;;13.27;;
12554;SDS011;6343;50.868;4.700;2022-12-18T06:56:11;26.77;;;13.93;;
12554;SDS011;6343;50.868;4.700;2022-12-18T06:58:38;23.90;;;12.90;;
12554;SDS011;6343;50.868;4.700;2022-12-18T07:01:04;23.53;;;12.73;;
12554;SDS011;6343;50.868;4.700;2022-12-18T07:03:31;23.40;;;12.97;;
12554;SDS011;6343;50.868;4.700;2022-12-18T07:05:57;22.20;;;12.90;;
12554;SDS011;6343;50.868;4.700;2022-12-18T07:08:23;24.50;;;13.40;;
12554;SDS011;6343;50.868;4.700;2022-12-18T07:10:50;22.60;;;12.77;;
12554;SDS011;6343;50.868;4.700;2022-12-18T07:13:16;24.43;;;12.87;;
12554;SDS011;6343;50.868;4.700;2022-12-18T07:15:43;23.80;;;12.87;;
12554;SDS011;6343;50.868;4.700;2022-12-18T07:18:09;23.63;;;12.37;;
12554;SDS011;6343;50.868;4.700;2022-12-18T07:20:35;23.77;;;12.47;;
12554;SDS011;6343;50.868;4.700;2022-12-18T07:23:02;20.63;;;12.10;;
12554;SDS011;6343;50.868;4.700;2022-12-18T07:25:28;23.63;;;13.23;;
12554;SDS011;6343;50.868;4.700;2022-12-18T07:27:54;27.93;;;13.07;;
12554;SDS011;6343;50.868;4.700;2022-12-18T07:30:20;23.00;;;11.90;;
12554;SDS011;6343;50.868;4.700;2022-12-18T07:32:46;25.97;;;12.47;;
12554;SDS011;6343;50.868;4.700;2022-12-18T07:35:12;20.70;;;12.50;;
12554;SDS011;6343;50.868;4.700;2022-12-18T07:37:39;22.40;;;13.07;;
12554;SDS011;6343;50.868;4.700;2022-12-18T07:40:05;24.27;;;12.93;;
12554;SDS011;6343;50.868;4.700;2022-12-18T07:42:31;21.10;;;12.47;;
12554;SDS011;6343;50.868;4.700;2022-12-18T07:44:58;23.93;;;12.57;;
12554;SDS011;6343;50.868;4.700;2022-12-18T07:47:24;34.33;;;15.63;;
12554;SDS011;6343;50.868;4.700;2022-12-18T07:49:50;34.00;;;16.90;;
12554;SDS011;6343;50.868;4.700;2022-12-18T07:52:16;28.43;;;15.33;;
12554;SDS011;6343;50.868;4.700;2022-12-18T07:54:43;25.23;;;14.03;;
12554;SDS011;6343;50.868;4.700;2022-12-18T07:57:09;23.97;;;12.63;;
12554;SDS011;6343;50.868;4.700;2022-12-18T07:59:35;26.87;;;12.37;;
12554;SDS011;6343;50.868;4.700;2022-12-18T08:02:01;35.67;;;15.93;;
12554;SDS011;6343;50.868;4.700;2022-12-18T08:04:27;47.73;;;19.00;;
12554;SDS011;6343;50.868;4.700;2022-12-18T08:06:53;21.33;;;12.37;;
12554;SDS011;6343;50.868;4.700;2022-12-18T08:09:19;20.80;;;11.80;;
12554;SDS011;6343;50.868;4.700;2022-12-18T08:11:45;19.47;;;11.30;;
12554;SDS011;6343;50.868;4.700;2022-12-18T08:14:11;23.97;;;11.27;;
12554;SDS011;6343;50.868;4.700;2022-12-18T08:16:38;23.30;;;13.03;;
12554;SDS011;6343;50.868;4.700;2022-12-18T08:19:04;21.20;;;11.90;;
12554;SDS011;6343;50.868;4.700;2022-12-18T08:21:31;22.73;;;12.07;;
12554;SDS011;6343;50.868;4.700;2022-12-18T08:23:58;23.37;;;12.70;;
12554;SDS011;6343;50.868;4.700;2022-12-18T08:26:25;25.80;;;12.23;;
12554;SDS011;6343;50.868;4.700;2022-12-18T08:28:52;21.80;;;11.67;;
12554;SDS011;6343;50.868;4.700;2022-12-18T08:31:19;23.60;;;12.67;;
12554;SDS011;6343;50.868;4.700;2022-12-18T08:33:45;21.37;;;12.03;;
12554;SDS011;6343;50.868;4.700;2022-12-18T08:36:11;22.73;;;12.60;;
12554;SDS011;6343;50.868;4.700;2022-12-18T08:38:37;23.47;;;12.20;;
12554;SDS011;6343;50.868;4.700;2022-12-18T08:41:04;19.70;;;12.03;;
12554;SDS011;6343;50.868;4.700;2022-12-18T08:43:31;19.57;;;11.20;;
12554;SDS011;6343;50.868;4.700;2022-12-18T08:46:16;22.60;;;11.90;;
12554;SDS011;6343;50.868;4.700;2022-12-18T08:48:42;21.70;;;12.27;;
12554;SDS011;6343;50.868;4.700;2022-12-18T08:51:08;22.57;;;12.17;;
12554;SDS011;6343;50.868;4.700;2022-12-18T08:53:35;23.80;;;11.77;;
12554;SDS011;6343;50.868;4.700;2022-12-18T08:56:02;20.40;;;11.70;;
12554;SDS011;6343;50.868;4.700;2022-12-18T08:58:28;19.13;;;11.60;;
12554;SDS011;6343;50.868;4.700;2022-12-18T09:00:59;20.27;;;11.63;;
12554;SDS011;6343;50.868;4.700;2022-12-18T09:03:25;18.87;;;11.03;;
12554;SDS011;6343;50.868;4.700;2022-12-18T09:05:52;21.73;;;12.60;;
12554;SDS011;6343;50.868;4.700;2022-12-18T09:08:18;21.13;;;11.47;;
12554;SDS011;6343;50.868;4.700;2022-12-18T09:10:44;22.53;;;12.10;;
12554;SDS011;6343;50.868;4.700;2022-12-18T09:13:11;21.67;;;11.53;;
12554;SDS011;6343;50.868;4.700;2022-12-18T09:15:41;19.77;;;12.13;;
12554;SDS011;6343;50.868;4.700;2022-12-18T09:18:08;21.10;;;11.77;;
12554;SDS011;6343;50.868;4.700;2022-12-18T09:20:34;18.00;;;11.83;;
12554;SDS011;6343;50.868;4.700;2022-12-18T09:23:00;23.77;;;12.23;;
12554;SDS011;6343;50.868;4.700;2022-12-18T09:25:26;21.60;;;10.83;;
12554;SDS011;6343;50.868;4.700;2022-12-18T09:27:58;19.60;;;11.10;;
12554;SDS011;6343;50.868;4.700;2022-12-18T09:30:24;17.80;;;10.73;;
12554;SDS011;6343;50.868;4.700;2022-12-18T09:32:50;22.37;;;11.07;;
12554;SDS011;6343;50.868;4.700;2022-12-18T09:35:16;19.33;;;11.13;;
12554;SDS011;6343;50.868;4.700;2022-12-18T09:37:42;22.30;;;10.53;;
12554;SDS011;6343;50.868;4.700;2022-12-18T09:40:28;18.03;;;10.97;;
12554;SDS011;6343;50.868;4.700;2022-12-18T09:43:00;17.10;;;10.23;;
12554;SDS011;6343;50.868;4.700;2022-12-18T09:45:29;18.87;;;10.37;;
12554;SDS011;6343;50.868;4.700;2022-12-18T09:47:56;17.90;;;10.83;;
12554;SDS011;6343;50.868;4.700;2022-12-18T09:50:33;20.20;;;10.57;;
12554;SDS011;6343;50.868;4.700;2022-12-18T09:53:02;18.20;;;11.33;;
12554;SDS011;6343;50.868;4.700;2022-12-18T09:55:32;16.10;;;10.40;;
12554;SDS011;6343;50.868;4.700;2022-12-18T09:58:12;34.37;;;18.40;;
12554;SDS011;6343;50.868;4.700;2022-12-18T10:00:39;16.77;;;8.83;;
12554;SDS011;6343;50.868;4.700;2022-12-18T10:03:10;15.40;;;8.93;;
12554;SDS011;6343;50.868;4.700;2022-12-18T10:08:05;15.60;;;8.60;;
12554;SDS011;6343;50.868;4.700;2022-12-18T10:15:50;12.70;;;8.00;;
12554;SDS011;6343;50.868;4.700;2022-12-18T10:28:15;14.37;;;8.20;;
12554;SDS011;6343;50.868;4.700;2022-12-18T10:30:42;13.70;;;8.13;;
12554;SDS011;6343;50.868;4.700;2022-12-18T10:33:22;13.80;;;8.13;;
12554;SDS011;6343;50.868;4.700;2022-12-18T10:35:50;13.07;;;8.10;;
12554;SDS011;6343;50.868;4.700;2022-12-18T10:43:15;13.67;;;7.43;;
12554;SDS011;6343;50.868;4.700;2022-12-18T10:45:41;13.10;;;7.83;;
12554;SDS011;6343;50.868;4.700;2022-12-18T10:48:18;12.87;;;7.93;;
12554;SDS011;6343;50.868;4.700;2022-12-18T10:50:46;11.77;;;7.37;;
12554;SDS011;6343;50.868;4.700;2022-12-18T10:53:13;12.97;;;8.47;;
12554;SDS011;6343;50.868;4.700;2022-12-18T10:55:44;14.87;;;7.60;;
12554;SDS011;6343;50.868;4.700;2022-12-18T10:58:26;13.00;;;8.30;;
12554;SDS011;6343;50.868;4.700;2022-12-18T11:01:03;15.57;;;9.13;;
12554;SDS011;6343;50.868;4.700;2022-12-18T11:03:31;11.40;;;7.57;;
12554;SDS011;6343;50.868;4.700;2022-12-18T11:06:02;16.80;;;9.13;;
12554;SDS011;6343;50.868;4.700;2022-12-18T11:08:29;12.80;;;7.60;;
12554;SDS011;6343;50.868;4.700;2022-12-18T11:10:55;15.43;;;8.60;;
12554;SDS011;6343;50.868;4.700;2022-12-18T11:13:22;13.20;;;8.17;;
12554;SDS011;6343;50.868;4.700;2022-12-18T11:15:49;12.67;;;7.97;;
12554;SDS011;6343;50.868;4.700;2022-12-18T11:18:16;11.97;;;7.40;;
12554;SDS011;6343;50.868;4.700;2022-12-18T11:20:44;14.20;;;7.90;;
12554;SDS011;6343;50.868;4.700;2022-12-18T11:23:16;13.80;;;8.40;;
12554;SDS011;6343;50.868;4.700;2022-12-18T11:25:42;11.03;;;7.97;;
12554;SDS011;6343;50.868;4.700;2022-12-18T11:31:35;14.00;;;9.17;;
12554;SDS011;6343;50.868;4.700;2022-12-18T11:33:58;14.60;;;8.57;;
12554;SDS011;6343;50.868;4.700;2022-12-18T11:36:25;13.80;;;8.87;;
12554;SDS011;6343;50.868;4.700;2022-12-18T11:38:54;16.77;;;9.40;;
12554;SDS011;6343;50.868;4.700;2022-12-18T11:41:23;13.70;;;9.33;;
12554;SDS011;6343;50.868;4.700;2022-12-18T11:44:11;15.00;;;9.67;;
12554;SDS011;6343;50.868;4.700;2022-12-18T11:46:43;14.07;;;8.03;;
12554;SDS011;6343;50.868;4.700;2022-12-18T11:49:12;14.17;;;9.90;;
12554;SDS011;6343;50.868;4.700;2022-12-18T11:51:45;15.17;;;9.13;;
12554;SDS011;6343;50.868;4.700;2022-12-18T11:54:14;14.07;;;9.57;;
12554;SDS011;6343;50.868;4.700;2022-12-18T11:56:48;15.37;;;9.40;;
12554;SDS011;6343;50.868;4.700;2022-12-18T12:05:24;15.80;;;9.77;;
12554;SDS011;6343;50.868;4.700;2022-12-18T12:12:24;14.17;;;9.77;;
12554;SDS011;6343;50.868;4.700;2022-12-18T12:20:18;14.97;;;9.33;;
12554;SDS011;6343;50.868;4.700;2022-12-18T12:27:45;14.13;;;9.47;;
12554;SDS011;6343;50.868;4.700;2022-12-18T12:30:22;17.13;;;9.93;;
12554;SDS011;6343;50.868;4.700;2022-12-18T12:33:33;18.70;;;10.27;;
12554;SDS011;6343;50.868;4.700;2022-12-18T12:38:25;20.10;;;10.53;;
12554;SDS011;6343;50.868;4.700;2022-12-18T12:40:54;18.27;;;10.50;;
12554;SDS011;6343;50.868;4.700;2022-12-18T12:43:28;15.80;;;10.73;;
12554;SDS011;6343;50.868;4.700;2022-12-18T12:50:52;18.13;;;10.13;;
12554;SDS011;6343;50.868;4.700;2022-12-18T12:53:21;21.30;;;12.43;;
12554;SDS011;6343;50.868;4.700;2022-12-18T12:55:47;18.53;;;10.93;;
12554;SDS011;6343;50.868;4.700;2022-12-18T13:03:43;19.63;;;11.17;;
12554;SDS011;6343;50.868;4.700;2022-12-18T13:08:57;15.47;;;10.23;;
12554;SDS011;6343;50.868;4.700;2022-12-18T13:11:40;19.37;;;10.67;;
12554;SDS011;6343;50.868;4.700;2022-12-18T13:14:46;16.03;;;9.63;;
12554;SDS011;6343;50.868;4.700;2022-12-18T13:19:40;15.30;;;9.47;;
12554;SDS011;6343;50.868;4.700;2022-12-18T13:22:19;14.67;;;9.47;;
12554;SDS011;6343;50.868;4.700;2022-12-18T13:24:45;16.03;;;9.70;;
12554;SDS011;6343;50.868;4.700;2022-12-18T13:29:57;16.97;;;9.70;;
12554;SDS011;6343;50.868;4.700;2022-12-18T13:32:24;16.67;;;10.00;;
12554;SDS011;6343;50.868;4.700;2022-12-18T13:37:42;19.07;;;9.70;;
12554;SDS011;6343;50.868;4.700;2022-12-18T13:42:54;18.33;;;10.60;;
12554;SDS011;6343;50.868;4.700;2022-12-18T13:45:40;14.77;;;9.27;;
12554;SDS011;6343;50.868;4.700;2022-12-18T13:48:29;15.80;;;10.50;;
12554;SDS011;6343;50.868;4.700;2022-12-18T13:50:57;15.97;;;9.97;;
12554;SDS011;6343;50.868;4.700;2022-12-18T13:53:28;19.30;;;10.27;;
12554;SDS011;6343;50.868;4.700;2022-12-18T13:55:55;15.43;;;10.53;;
12554;SDS011;6343;50.868;4.700;2022-12-18T13:58:22;17.33;;;10.70;;
12554;SDS011;6343;50.868;4.700;2022-12-18T14:00:48;15.77;;;9.80;;
12554;SDS011;6343;50.868;4.700;2022-12-18T14:03:18;18.40;;;10.57;;
12554;SDS011;6343;50.868;4.700;2022-12-18T14:05:44;21.00;;;11.53;;
12554;SDS011;6343;50.868;4.700;2022-12-18T14:08:12;16.97;;;10.60;;
12554;SDS011;6343;50.868;4.700;2022-12-18T14:10:40;16.53;;;9.77;;
12554;SDS011;6343;50.868;4.700;2022-12-18T14:13:07;20.43;;;11.33;;
12554;SDS011;6343;50.868;4.700;2022-12-18T14:15:35;18.83;;;10.50;;
12554;SDS011;6343;50.868;4.700;2022-12-18T14:18:02;21.43;;;11.77;;
12554;SDS011;6343;50.868;4.700;2022-12-18T14:20:33;18.10;;;10.57;;
12554;SDS011;6343;50.868;4.700;2022-12-18T14:23:00;16.90;;;10.23;;
12554;SDS011;6343;50.868;4.700;2022-12-18T14:25:27;19.20;;;10.87;;
12554;SDS011;6343;50.868;4.700;2022-12-18T14:28:02;17.23;;;10.63;;
12554;SDS011;6343;50.868;4.700;2022-12-18T14:33:05;18.53;;;11.30;;
12554;SDS011;6343;50.868;4.700;2022-12-18T14:35:32;20.37;;;11.57;;
12554;SDS011;6343;50.868;4.700;2022-12-18T14:38:16;19.70;;;11.00;;
12554;SDS011;6343;50.868;4.700;2022-12-18T14:40:45;21.83;;;12.17;;
12554;SDS011;6343;50.868;4.700;2022-12-18T14:43:11;20.07;;;11.93;;
12554;SDS011;6343;50.868;4.700;2022-12-18T14:45:42;21.07;;;11.80;;
12554;SDS011;6343;50.868;4.700;2022-12-18T14:49:57;22.43;;;11.90;;
12554;SDS011;6343;50.868;4.700;2022-12-18T14:52:26;18.23;;;11.30;;
12554;SDS011;6343;50.868;4.700;2022-12-18T14:54:53;19.70;;;11.17;;
12554;SDS011;6343;50.868;4.700;2022-12-18T14:57:25;21.93;;;12.93;;
12554;SDS011;6343;50.868;4.700;2022-12-18T15:00:15;19.50;;;12.33;;
12554;SDS011;6343;50.868;4.700;2022-12-18T15:02:42;23.23;;;13.03;;
12554;SDS011;6343;50.868;4.700;2022-12-18T15:10:17;21.93;;;12.93;;
12554;SDS011;6343;50.868;4.700;2022-12-18T15:12:48;20.80;;;13.20;;
12554;SDS011;6343;50.868;4.700;2022-12-18T15:20:56;21.43;;;12.30;;
12554;SDS011;6343;50.868;4.700;2022-12-18T15:26:03;30.73;;;14.23;;
12554;SDS011;6343;50.868;4.700;2022-12-18T15:28:35;18.30;;;12.10;;
12554;SDS011;6343;50.868;4.700;2022-12-18T15:33:36;23.07;;;13.23;;
12554;SDS011;6343;50.868;4.700;2022-12-18T15:36:09;23.90;;;12.87;;
12554;SDS011;6343;50.868;4.700;2022-12-18T15:38:35;21.87;;;12.80;;
12554;SDS011;6343;50.868;4.700;2022-12-18T15:41:01;18.57;;;11.80;;
12554;SDS011;6343;50.868;4.700;2022-12-18T15:43:29;23.70;;;13.60;;
12554;SDS011;6343;50.868;4.700;2022-12-18T15:46:11;24.20;;;13.70;;
12554;SDS011;6343;50.868;4.700;2022-12-18T15:48:45;25.53;;;12.23;;
12554;SDS011;6343;50.868;4.700;2022-12-18T15:51:12;21.90;;;12.63;;
12554;SDS011;6343;50.868;4.700;2022-12-18T15:53:39;21.50;;;12.13;;
12554;SDS011;6343;50.868;4.700;2022-12-18T15:56:09;23.27;;;13.57;;
12554;SDS011;6343;50.868;4.700;2022-12-18T15:58:54;24.37;;;13.07;;
12554;SDS011;6343;50.868;4.700;2022-12-18T16:01:21;20.83;;;13.17;;
12554;SDS011;6343;50.868;4.700;2022-12-18T16:03:48;22.97;;;12.80;;
12554;SDS011;6343;50.868;4.700;2022-12-18T16:06:14;27.27;;;15.80;;
12554;SDS011;6343;50.868;4.700;2022-12-18T16:08:40;25.13;;;14.27;;
12554;SDS011;6343;50.868;4.700;2022-12-18T16:11:10;24.53;;;13.47;;
12554;SDS011;6343;50.868;4.700;2022-12-18T16:13:42;23.93;;;14.23;;
12554;SDS011;6343;50.868;4.700;2022-12-18T16:16:08;21.57;;;12.80;;
12554;SDS011;6343;50.868;4.700;2022-12-18T16:18:34;20.40;;;13.20;;
12554;SDS011;6343;50.868;4.700;2022-12-18T16:21:00;25.90;;;13.60;;
12554;SDS011;6343;50.868;4.700;2022-12-18T16:23:26;20.50;;;12.37;;
12554;SDS011;6343;50.868;4.700;2022-12-18T16:25:53;24.87;;;13.50;;
12554;SDS011;6343;50.868;4.700;2022-12-18T16:28:19;22.70;;;13.53;;
12554;SDS011;6343;50.868;4.700;2022-12-18T16:30:46;23.30;;;12.70;;
12554;SDS011;6343;50.868;4.700;2022-12-18T16:33:12;27.13;;;13.90;;
12554;SDS011;6343;50.868;4.700;2022-12-18T16:35:38;21.60;;;13.20;;
12554;SDS011;6343;50.868;4.700;2022-12-18T16:38:04;22.60;;;13.57;;
12554;SDS011;6343;50.868;4.700;2022-12-18T16:40:31;25.63;;;13.57;;
12554;SDS011;6343;50.868;4.700;2022-12-18T16:42:57;27.03;;;14.60;;
12554;SDS011;6343;50.868;4.700;2022-12-18T16:45:23;24.33;;;13.47;;
12554;SDS011;6343;50.868;4.700;2022-12-18T16:47:50;24.70;;;12.90;;